sensor_id;sensor_type;location;lat;lon;timestamp;P1;durP1;ratioP1;P2;durP2;ratioP2
19448;SDS011;9863;49.404;8.246;2023-03-11T00:00:34;305.02;;;113.20;;
19448;SDS011;9863;49.404;8.246;2023-03-11T00:03:05;338.48;;;111.93;;
19448;SDS011;9863;49.404;8.246;2023-03-11T00:05:35;294.13;;;111.97;;
19448;SDS011;9863;49.404;8.246;2023-03-11T00:08:05;307.58;;;112.88;;
19448;SDS011;9863;49.404;8.246;2023-03-11T00:10:35;272.42;;;119.30;;
19448;SDS011;9863;49.404;8.246;2023-03-11T00:13:06;285.08;;;116.93;;
19448;SDS011;9863;49.404;8.246;2023-03-11T00:15:35;263.80;;;112.88;;
19448;SDS011;9863;49.404;8.246;2023-03-11T00:18:04;301.65;;;109.75;;
19448;SDS011;9863;49.404;8.246;2023-03-11T00:20:33;291.60;;;108.07;;
19448;SDS011;9863;49.404;8.246;2023-03-11T00:23:04;324.70;;;105.65;;
19448;SDS011;9863;49.404;8.246;2023-03-11T00:25:34;360.73;;;103.22;;
19448;SDS011;9863;49.404;8.246;2023-03-11T00:28:03;371.60;;;109.38;;
19448;SDS011;9863;49.404;8.246;2023-03-11T00:30:32;46.08;;;30.55;;
19448;SDS011;9863;49.404;8.246;2023-03-11T00:33:00;394.27;;;106.82;;
19448;SDS011;9863;49.404;8.246;2023-03-11T00:35:28;396.52;;;105.80;;
19448;SDS011;9863;49.404;8.246;2023-03-11T00:37:59;390.13;;;103.18;;
19448;SDS011;9863;49.404;8.246;2023-03-11T00:40:30;385.73;;;100.03;;
19448;SDS011;9863;49.404;8.246;2023-03-11T00:42:59;388.98;;;102.78;;
19448;SDS011;9863;49.404;8.246;2023-03-11T00:45:27;384.27;;;100.00;;
19448;SDS011;9863;49.404;8.246;2023-03-11T00:47:54;372.42;;;95.15;;
19448;SDS011;9863;49.404;8.246;2023-03-11T00:50:23;383.05;;;102.57;;
19448;SDS011;9863;49.404;8.246;2023-03-11T00:52:53;379.58;;;99.03;;
19448;SDS011;9863;49.404;8.246;2023-03-11T00:55:23;383.45;;;101.95;;
19448;SDS011;9863;49.404;8.246;2023-03-11T00:57:56;381.33;;;99.47;;
19448;SDS011;9863;49.404;8.246;2023-03-11T01:00:27;389.88;;;105.18;;
19448;SDS011;9863;49.404;8.246;2023-03-11T01:02:56;379.67;;;99.88;;
19448;SDS011;9863;49.404;8.246;2023-03-11T01:05:26;375.75;;;97.22;;
19448;SDS011;9863;49.404;8.246;2023-03-11T01:07:56;383.77;;;99.78;;
19448;SDS011;9863;49.404;8.246;2023-03-11T01:10:24;382.48;;;101.03;;
19448;SDS011;9863;49.404;8.246;2023-03-11T01:12:53;381.13;;;98.43;;
19448;SDS011;9863;49.404;8.246;2023-03-11T01:15:21;381.63;;;98.85;;
19448;SDS011;9863;49.404;8.246;2023-03-11T01:17:54;380.92;;;95.97;;
19448;SDS011;9863;49.404;8.246;2023-03-11T01:20:21;376.48;;;95.43;;
19448;SDS011;9863;49.404;8.246;2023-03-11T01:22:49;381.58;;;95.80;;
19448;SDS011;9863;49.404;8.246;2023-03-11T01:25:17;379.08;;;95.30;;
19448;SDS011;9863;49.404;8.246;2023-03-11T01:27:46;382.05;;;94.80;;
19448;SDS011;9863;49.404;8.246;2023-03-11T01:30:17;375.83;;;93.60;;
19448;SDS011;9863;49.404;8.246;2023-03-11T01:32:47;375.88;;;93.55;;
19448;SDS011;9863;49.404;8.246;2023-03-11T01:35:16;378.52;;;95.00;;
19448;SDS011;9863;49.404;8.246;2023-03-11T01:37:45;382.30;;;93.95;;
19448;SDS011;9863;49.404;8.246;2023-03-11T01:40:18;380.45;;;94.80;;
19448;SDS011;9863;49.404;8.246;2023-03-11T01:42:49;377.08;;;91.55;;
19448;SDS011;9863;49.404;8.246;2023-03-11T01:45:28;373.77;;;90.38;;
19448;SDS011;9863;49.404;8.246;2023-03-11T01:48:08;375.13;;;89.70;;
19448;SDS011;9863;49.404;8.246;2023-03-11T01:50:37;388.90;;;99.28;;
19448;SDS011;9863;49.404;8.246;2023-03-11T01:53:09;380.35;;;93.60;;
19448;SDS011;9863;49.404;8.246;2023-03-11T01:55:39;370.88;;;88.47;;
19448;SDS011;9863;49.404;8.246;2023-03-11T01:58:07;376.42;;;90.13;;
19448;SDS011;9863;49.404;8.246;2023-03-11T02:00:37;377.27;;;89.15;;
19448;SDS011;9863;49.404;8.246;2023-03-11T02:03:06;371.77;;;87.95;;
19448;SDS011;9863;49.404;8.246;2023-03-11T02:05:41;383.10;;;92.70;;
19448;SDS011;9863;49.404;8.246;2023-03-11T02:08:08;386.88;;;94.63;;
19448;SDS011;9863;49.404;8.246;2023-03-11T02:10:36;524.63;;;180.98;;
19448;SDS011;9863;49.404;8.246;2023-03-11T02:13:07;378.17;;;92.18;;
19448;SDS011;9863;49.404;8.246;2023-03-11T02:15:36;380.98;;;89.55;;
19448;SDS011;9863;49.404;8.246;2023-03-11T02:18:05;373.67;;;87.03;;
19448;SDS011;9863;49.404;8.246;2023-03-11T02:20:46;387.15;;;93.20;;
19448;SDS011;9863;49.404;8.246;2023-03-11T02:23:28;369.17;;;82.18;;
19448;SDS011;9863;49.404;8.246;2023-03-11T02:26:06;374.45;;;84.90;;
19448;SDS011;9863;49.404;8.246;2023-03-11T02:28:42;372.88;;;84.63;;
19448;SDS011;9863;49.404;8.246;2023-03-11T02:31:11;368.02;;;81.75;;
19448;SDS011;9863;49.404;8.246;2023-03-11T02:33:39;387.60;;;91.30;;
19448;SDS011;9863;49.404;8.246;2023-03-11T02:36:28;383.75;;;88.85;;
19448;SDS011;9863;49.404;8.246;2023-03-11T02:39:01;378.77;;;85.63;;
19448;SDS011;9863;49.404;8.246;2023-03-11T02:41:30;389.80;;;92.15;;
19448;SDS011;9863;49.404;8.246;2023-03-11T02:44:00;378.80;;;84.97;;
19448;SDS011;9863;49.404;8.246;2023-03-11T02:46:28;378.75;;;86.70;;
19448;SDS011;9863;49.404;8.246;2023-03-11T02:48:55;373.00;;;83.25;;
19448;SDS011;9863;49.404;8.246;2023-03-11T02:51:23;371.65;;;82.85;;
19448;SDS011;9863;49.404;8.246;2023-03-11T02:53:51;371.05;;;83.13;;
19448;SDS011;9863;49.404;8.246;2023-03-11T02:56:23;383.33;;;86.32;;
19448;SDS011;9863;49.404;8.246;2023-03-11T02:58:50;375.10;;;83.28;;
19448;SDS011;9863;49.404;8.246;2023-03-11T03:01:17;373.63;;;82.93;;
19448;SDS011;9863;49.404;8.246;2023-03-11T03:03:45;376.02;;;84.35;;
19448;SDS011;9863;49.404;8.246;2023-03-11T03:06:12;371.55;;;81.78;;
19448;SDS011;9863;49.404;8.246;2023-03-11T03:08:39;376.20;;;82.78;;
19448;SDS011;9863;49.404;8.246;2023-03-11T03:11:06;374.90;;;82.80;;
19448;SDS011;9863;49.404;8.246;2023-03-11T03:13:34;380.58;;;85.10;;
19448;SDS011;9863;49.404;8.246;2023-03-11T03:16:01;379.30;;;83.85;;
19448;SDS011;9863;49.404;8.246;2023-03-11T03:18:29;377.33;;;83.90;;
19448;SDS011;9863;49.404;8.246;2023-03-11T03:20:56;367.52;;;80.50;;
19448;SDS011;9863;49.404;8.246;2023-03-11T03:23:23;377.77;;;85.15;;
19448;SDS011;9863;49.404;8.246;2023-03-11T03:25:50;373.90;;;83.50;;
19448;SDS011;9863;49.404;8.246;2023-03-11T03:28:17;368.23;;;79.72;;
19448;SDS011;9863;49.404;8.246;2023-03-11T03:30:45;373.52;;;83.22;;
19448;SDS011;9863;49.404;8.246;2023-03-11T03:33:12;370.60;;;79.75;;
19448;SDS011;9863;49.404;8.246;2023-03-11T03:35:39;371.10;;;80.55;;
19448;SDS011;9863;49.404;8.246;2023-03-11T03:38:09;373.40;;;81.22;;
19448;SDS011;9863;49.404;8.246;2023-03-11T03:40:37;377.42;;;83.13;;
19448;SDS011;9863;49.404;8.246;2023-03-11T03:43:05;378.60;;;82.38;;
19448;SDS011;9863;49.404;8.246;2023-03-11T03:45:32;386.63;;;87.10;;
19448;SDS011;9863;49.404;8.246;2023-03-11T03:47:59;361.77;;;75.63;;
19448;SDS011;9863;49.404;8.246;2023-03-11T03:50:26;368.30;;;78.53;;
19448;SDS011;9863;49.404;8.246;2023-03-11T03:52:53;370.17;;;78.90;;
19448;SDS011;9863;49.404;8.246;2023-03-11T03:55:20;368.05;;;77.40;;
19448;SDS011;9863;49.404;8.246;2023-03-11T03:57:47;372.85;;;80.05;;
19448;SDS011;9863;49.404;8.246;2023-03-11T04:00:14;374.75;;;81.97;;
19448;SDS011;9863;49.404;8.246;2023-03-11T04:02:42;374.63;;;80.38;;
19448;SDS011;9863;49.404;8.246;2023-03-11T04:05:09;361.70;;;75.57;;
19448;SDS011;9863;49.404;8.246;2023-03-11T04:07:36;376.27;;;82.43;;
19448;SDS011;9863;49.404;8.246;2023-03-11T04:10:04;366.60;;;77.07;;
19448;SDS011;9863;49.404;8.246;2023-03-11T04:12:32;388.00;;;86.05;;
19448;SDS011;9863;49.404;8.246;2023-03-11T04:14:59;370.50;;;79.03;;
19448;SDS011;9863;49.404;8.246;2023-03-11T04:17:26;377.60;;;82.50;;
19448;SDS011;9863;49.404;8.246;2023-03-11T04:19:53;364.88;;;75.80;;
19448;SDS011;9863;49.404;8.246;2023-03-11T04:22:20;369.58;;;78.30;;
19448;SDS011;9863;49.404;8.246;2023-03-11T04:24:47;377.02;;;82.28;;
19448;SDS011;9863;49.404;8.246;2023-03-11T04:27:14;361.92;;;75.22;;
19448;SDS011;9863;49.404;8.246;2023-03-11T04:29:41;373.33;;;79.60;;
19448;SDS011;9863;49.404;8.246;2023-03-11T04:32:08;363.35;;;76.03;;
19448;SDS011;9863;49.404;8.246;2023-03-11T04:34:35;376.10;;;84.15;;
19448;SDS011;9863;49.404;8.246;2023-03-11T04:37:03;383.65;;;85.10;;
19448;SDS011;9863;49.404;8.246;2023-03-11T04:39:30;381.98;;;84.10;;
19448;SDS011;9863;49.404;8.246;2023-03-11T04:41:57;366.45;;;77.22;;
19448;SDS011;9863;49.404;8.246;2023-03-11T04:44:24;376.25;;;81.22;;
19448;SDS011;9863;49.404;8.246;2023-03-11T04:46:51;364.42;;;75.88;;
19448;SDS011;9863;49.404;8.246;2023-03-11T04:49:18;375.15;;;81.40;;
19448;SDS011;9863;49.404;8.246;2023-03-11T04:51:46;365.25;;;77.18;;
19448;SDS011;9863;49.404;8.246;2023-03-11T04:54:13;369.13;;;78.35;;
19448;SDS011;9863;49.404;8.246;2023-03-11T04:56:40;376.63;;;81.15;;
19448;SDS011;9863;49.404;8.246;2023-03-11T04:59:07;372.42;;;78.93;;
19448;SDS011;9863;49.404;8.246;2023-03-11T05:01:34;373.13;;;80.80;;
19448;SDS011;9863;49.404;8.246;2023-03-11T05:04:01;364.88;;;76.43;;
19448;SDS011;9863;49.404;8.246;2023-03-11T05:06:28;371.02;;;79.35;;
19448;SDS011;9863;49.404;8.246;2023-03-11T05:08:55;364.83;;;76.63;;
19448;SDS011;9863;49.404;8.246;2023-03-11T05:11:24;382.42;;;84.10;;
19448;SDS011;9863;49.404;8.246;2023-03-11T05:13:51;365.58;;;77.00;;
19448;SDS011;9863;49.404;8.246;2023-03-11T05:16:18;371.35;;;79.93;;
19448;SDS011;9863;49.404;8.246;2023-03-11T05:18:45;365.80;;;77.15;;
19448;SDS011;9863;49.404;8.246;2023-03-11T05:21:12;368.25;;;77.40;;
19448;SDS011;9863;49.404;8.246;2023-03-11T05:23:40;363.95;;;76.18;;
19448;SDS011;9863;49.404;8.246;2023-03-11T05:26:07;370.90;;;78.47;;
19448;SDS011;9863;49.404;8.246;2023-03-11T05:28:34;369.92;;;77.43;;
19448;SDS011;9863;49.404;8.246;2023-03-11T05:31:01;363.17;;;76.20;;
19448;SDS011;9863;49.404;8.246;2023-03-11T05:33:28;364.38;;;74.45;;
19448;SDS011;9863;49.404;8.246;2023-03-11T05:36:06;362.80;;;76.07;;
19448;SDS011;9863;49.404;8.246;2023-03-11T05:38:36;371.17;;;78.80;;
19448;SDS011;9863;49.404;8.246;2023-03-11T05:41:03;362.05;;;74.78;;
19448;SDS011;9863;49.404;8.246;2023-03-11T05:43:31;369.08;;;77.95;;
19448;SDS011;9863;49.404;8.246;2023-03-11T05:45:58;361.25;;;73.82;;
19448;SDS011;9863;49.404;8.246;2023-03-11T05:48:25;359.45;;;73.03;;
19448;SDS011;9863;49.404;8.246;2023-03-11T05:50:52;358.33;;;76.28;;
19448;SDS011;9863;49.404;8.246;2023-03-11T05:53:19;356.10;;;74.57;;
19448;SDS011;9863;49.404;8.246;2023-03-11T05:55:54;359.60;;;77.10;;
19448;SDS011;9863;49.404;8.246;2023-03-11T05:58:26;356.17;;;76.80;;
19448;SDS011;9863;49.404;8.246;2023-03-11T06:00:57;355.92;;;75.00;;
19448;SDS011;9863;49.404;8.246;2023-03-11T06:03:25;350.05;;;77.30;;
19448;SDS011;9863;49.404;8.246;2023-03-11T06:05:52;368.70;;;83.47;;
19448;SDS011;9863;49.404;8.246;2023-03-11T06:08:20;365.42;;;76.18;;
19448;SDS011;9863;49.404;8.246;2023-03-11T06:10:48;359.35;;;75.93;;
19448;SDS011;9863;49.404;8.246;2023-03-11T06:13:15;370.52;;;83.47;;
19448;SDS011;9863;49.404;8.246;2023-03-11T06:15:42;376.02;;;86.38;;
19448;SDS011;9863;49.404;8.246;2023-03-11T06:18:10;356.13;;;90.07;;
19448;SDS011;9863;49.404;8.246;2023-03-11T06:20:37;361.77;;;77.75;;
19448;SDS011;9863;49.404;8.246;2023-03-11T06:23:04;358.50;;;75.50;;
19448;SDS011;9863;49.404;8.246;2023-03-11T06:25:31;376.52;;;84.57;;
19448;SDS011;9863;49.404;8.246;2023-03-11T06:27:58;357.50;;;79.18;;
19448;SDS011;9863;49.404;8.246;2023-03-11T06:30:38;362.13;;;78.63;;
19448;SDS011;9863;49.404;8.246;2023-03-11T06:33:10;353.52;;;74.70;;
19448;SDS011;9863;49.404;8.246;2023-03-11T06:35:39;365.38;;;76.07;;
19448;SDS011;9863;49.404;8.246;2023-03-11T06:38:07;358.23;;;75.70;;
19448;SDS011;9863;49.404;8.246;2023-03-11T06:40:35;364.40;;;78.15;;
19448;SDS011;9863;49.404;8.246;2023-03-11T06:43:03;361.98;;;77.97;;
19448;SDS011;9863;49.404;8.246;2023-03-11T06:45:30;359.17;;;78.22;;
19448;SDS011;9863;49.404;8.246;2023-03-11T06:47:57;349.50;;;78.22;;
19448;SDS011;9863;49.404;8.246;2023-03-11T06:50:25;354.50;;;77.57;;
19448;SDS011;9863;49.404;8.246;2023-03-11T06:52:53;367.42;;;85.55;;
19448;SDS011;9863;49.404;8.246;2023-03-11T06:55:20;357.02;;;76.68;;
19448;SDS011;9863;49.404;8.246;2023-03-11T06:57:47;360.98;;;82.30;;
19448;SDS011;9863;49.404;8.246;2023-03-11T07:00:14;359.50;;;75.30;;
19448;SDS011;9863;49.404;8.246;2023-03-11T07:02:42;370.02;;;82.03;;
19448;SDS011;9863;49.404;8.246;2023-03-11T07:05:10;355.45;;;78.88;;
19448;SDS011;9863;49.404;8.246;2023-03-11T07:07:38;364.00;;;81.70;;
19448;SDS011;9863;49.404;8.246;2023-03-11T07:10:06;364.17;;;81.97;;
19448;SDS011;9863;49.404;8.246;2023-03-11T07:12:34;371.55;;;90.40;;
19448;SDS011;9863;49.404;8.246;2023-03-11T07:15:03;356.75;;;85.13;;
19448;SDS011;9863;49.404;8.246;2023-03-11T07:17:31;362.23;;;82.82;;
19448;SDS011;9863;49.404;8.246;2023-03-11T07:19:58;346.40;;;84.32;;
19448;SDS011;9863;49.404;8.246;2023-03-11T07:22:25;356.02;;;82.90;;
19448;SDS011;9863;49.404;8.246;2023-03-11T07:24:52;358.67;;;88.25;;
19448;SDS011;9863;49.404;8.246;2023-03-11T07:27:19;354.55;;;86.78;;
19448;SDS011;9863;49.404;8.246;2023-03-11T07:29:48;361.05;;;84.50;;
19448;SDS011;9863;49.404;8.246;2023-03-11T07:32:15;358.48;;;85.55;;
19448;SDS011;9863;49.404;8.246;2023-03-11T07:34:43;364.40;;;87.15;;
19448;SDS011;9863;49.404;8.246;2023-03-11T07:37:10;361.38;;;85.65;;
19448;SDS011;9863;49.404;8.246;2023-03-11T07:39:38;371.90;;;89.00;;
19448;SDS011;9863;49.404;8.246;2023-03-11T07:42:05;358.95;;;88.55;;
19448;SDS011;9863;49.404;8.246;2023-03-11T07:44:32;366.67;;;90.30;;
19448;SDS011;9863;49.404;8.246;2023-03-11T07:47:03;362.75;;;87.88;;
19448;SDS011;9863;49.404;8.246;2023-03-11T07:49:31;355.92;;;88.22;;
19448;SDS011;9863;49.404;8.246;2023-03-11T07:51:58;356.58;;;88.00;;
19448;SDS011;9863;49.404;8.246;2023-03-11T07:54:26;369.60;;;90.60;;
19448;SDS011;9863;49.404;8.246;2023-03-11T07:56:53;369.90;;;90.82;;
19448;SDS011;9863;49.404;8.246;2023-03-11T07:59:20;376.65;;;93.80;;
19448;SDS011;9863;49.404;8.246;2023-03-11T08:01:47;373.02;;;96.80;;
19448;SDS011;9863;49.404;8.246;2023-03-11T08:04:15;363.67;;;93.22;;
19448;SDS011;9863;49.404;8.246;2023-03-11T08:06:44;367.90;;;93.95;;
19448;SDS011;9863;49.404;8.246;2023-03-11T08:09:12;363.75;;;91.35;;
19448;SDS011;9863;49.404;8.246;2023-03-11T08:11:40;374.98;;;98.35;;
19448;SDS011;9863;49.404;8.246;2023-03-11T08:14:08;373.92;;;91.40;;
19448;SDS011;9863;49.404;8.246;2023-03-11T08:16:35;383.15;;;96.15;;
19448;SDS011;9863;49.404;8.246;2023-03-11T08:19:05;371.50;;;95.82;;
19448;SDS011;9863;49.404;8.246;2023-03-11T08:21:32;377.45;;;95.72;;
19448;SDS011;9863;49.404;8.246;2023-03-11T08:23:59;369.67;;;95.38;;
19448;SDS011;9863;49.404;8.246;2023-03-11T08:26:30;389.92;;;98.97;;
19448;SDS011;9863;49.404;8.246;2023-03-11T08:28:57;372.52;;;91.35;;
19448;SDS011;9863;49.404;8.246;2023-03-11T08:31:26;374.80;;;95.70;;
19448;SDS011;9863;49.404;8.246;2023-03-11T08:33:58;385.70;;;100.28;;
19448;SDS011;9863;49.404;8.246;2023-03-11T08:36:28;382.60;;;97.80;;
19448;SDS011;9863;49.404;8.246;2023-03-11T08:38:56;374.55;;;97.65;;
19448;SDS011;9863;49.404;8.246;2023-03-11T08:41:24;398.55;;;103.65;;
19448;SDS011;9863;49.404;8.246;2023-03-11T08:43:51;394.23;;;103.70;;
19448;SDS011;9863;49.404;8.246;2023-03-11T08:46:32;374.70;;;99.43;;
19448;SDS011;9863;49.404;8.246;2023-03-11T08:49:04;391.45;;;102.43;;
19448;SDS011;9863;49.404;8.246;2023-03-11T08:51:33;390.92;;;102.93;;
19448;SDS011;9863;49.404;8.246;2023-03-11T08:54:01;386.70;;;102.25;;
19448;SDS011;9863;49.404;8.246;2023-03-11T08:56:29;389.50;;;106.60;;
19448;SDS011;9863;49.404;8.246;2023-03-11T08:58:56;388.20;;;103.95;;
19448;SDS011;9863;49.404;8.246;2023-03-11T09:01:23;379.45;;;104.88;;
19448;SDS011;9863;49.404;8.246;2023-03-11T09:03:51;391.50;;;113.88;;
19448;SDS011;9863;49.404;8.246;2023-03-11T09:06:22;394.73;;;115.03;;
19448;SDS011;9863;49.404;8.246;2023-03-11T09:08:50;391.52;;;112.07;;
19448;SDS011;9863;49.404;8.246;2023-03-11T09:11:17;387.70;;;111.95;;
19448;SDS011;9863;49.404;8.246;2023-03-11T09:13:44;386.70;;;108.97;;
19448;SDS011;9863;49.404;8.246;2023-03-11T09:16:13;390.50;;;113.63;;
19448;SDS011;9863;49.404;8.246;2023-03-11T09:18:43;399.85;;;118.22;;
19448;SDS011;9863;49.404;8.246;2023-03-11T09:21:11;384.45;;;110.65;;
19448;SDS011;9863;49.404;8.246;2023-03-11T09:23:40;394.80;;;115.32;;
19448;SDS011;9863;49.404;8.246;2023-03-11T09:26:09;383.75;;;113.13;;
19448;SDS011;9863;49.404;8.246;2023-03-11T09:28:38;392.75;;;115.78;;
19448;SDS011;9863;49.404;8.246;2023-03-11T09:31:07;384.48;;;112.05;;
19448;SDS011;9863;49.404;8.246;2023-03-11T09:33:36;389.20;;;114.68;;
19448;SDS011;9863;49.404;8.246;2023-03-11T09:36:06;383.60;;;111.88;;
19448;SDS011;9863;49.404;8.246;2023-03-11T09:38:42;398.92;;;117.10;;
19448;SDS011;9863;49.404;8.246;2023-03-11T09:44:33;397.40;;;115.60;;
19448;SDS011;9863;49.404;8.246;2023-03-11T09:47:27;380.20;;;109.90;;
19448;SDS011;9863;49.404;8.246;2023-03-11T09:50:30;389.75;;;110.00;;
19448;SDS011;9863;49.404;8.246;2023-03-11T09:55:56;397.67;;;131.55;;
19448;SDS011;9863;49.404;8.246;2023-03-11T09:58:45;389.35;;;116.63;;
19448;SDS011;9863;49.404;8.246;2023-03-11T10:01:29;392.65;;;115.90;;
19448;SDS011;9863;49.404;8.246;2023-03-11T10:06:52;402.55;;;123.72;;
19448;SDS011;9863;49.404;8.246;2023-03-11T10:09:25;394.42;;;123.78;;
19448;SDS011;9863;49.404;8.246;2023-03-11T10:18:19;397.05;;;127.20;;
19448;SDS011;9863;49.404;8.246;2023-03-11T10:24:25;396.88;;;128.00;;
19448;SDS011;9863;49.404;8.246;2023-03-11T10:27:26;392.33;;;131.88;;
19448;SDS011;9863;49.404;8.246;2023-03-11T10:33:13;397.48;;;144.05;;
19448;SDS011;9863;49.404;8.246;2023-03-11T10:35:46;411.10;;;153.73;;
19448;SDS011;9863;49.404;8.246;2023-03-11T10:38:21;406.50;;;161.98;;
19448;SDS011;9863;49.404;8.246;2023-03-11T10:40:55;416.80;;;175.10;;
19448;SDS011;9863;49.404;8.246;2023-03-11T10:43:33;408.67;;;173.48;;
19448;SDS011;9863;49.404;8.246;2023-03-11T10:46:22;419.15;;;185.98;;
19448;SDS011;9863;49.404;8.246;2023-03-11T10:48:52;414.15;;;188.60;;
19448;SDS011;9863;49.404;8.246;2023-03-11T10:51:20;414.02;;;192.40;;
19448;SDS011;9863;49.404;8.246;2023-03-11T10:54:00;418.77;;;199.30;;
19448;SDS011;9863;49.404;8.246;2023-03-11T10:59:22;408.35;;;196.60;;
19448;SDS011;9863;49.404;8.246;2023-03-11T11:07:43;419.33;;;223.55;;
19448;SDS011;9863;49.404;8.246;2023-03-11T11:15:40;427.38;;;249.55;;
19448;SDS011;9863;49.404;8.246;2023-03-11T11:18:18;418.35;;;248.13;;
19448;SDS011;9863;49.404;8.246;2023-03-11T11:20:54;426.83;;;252.52;;
19448;SDS011;9863;49.404;8.246;2023-03-11T11:23:32;424.73;;;250.20;;
19448;SDS011;9863;49.404;8.246;2023-03-11T11:26:14;419.48;;;250.07;;
19448;SDS011;9863;49.404;8.246;2023-03-11T11:31:38;427.20;;;272.25;;
19448;SDS011;9863;49.404;8.246;2023-03-11T11:34:31;431.95;;;285.42;;
19448;SDS011;9863;49.404;8.246;2023-03-11T11:37:01;431.35;;;298.60;;
19448;SDS011;9863;49.404;8.246;2023-03-11T11:39:40;431.90;;;299.13;;
19448;SDS011;9863;49.404;8.246;2023-03-11T11:42:24;426.60;;;304.92;;
19448;SDS011;9863;49.404;8.246;2023-03-11T11:45:02;445.58;;;313.77;;
19448;SDS011;9863;49.404;8.246;2023-03-11T11:47:57;434.33;;;305.23;;
19448;SDS011;9863;49.404;8.246;2023-03-11T11:50:47;434.25;;;320.77;;
19448;SDS011;9863;49.404;8.246;2023-03-11T11:53:43;426.50;;;304.00;;
19448;SDS011;9863;49.404;8.246;2023-03-11T11:56:28;427.58;;;302.85;;
19448;SDS011;9863;49.404;8.246;2023-03-11T11:58:57;435.55;;;319.05;;
19448;SDS011;9863;49.404;8.246;2023-03-11T12:01:34;422.83;;;304.02;;
19448;SDS011;9863;49.404;8.246;2023-03-11T12:15:46;431.38;;;318.50;;
19448;SDS011;9863;49.404;8.246;2023-03-11T12:18:21;434.42;;;330.48;;
19448;SDS011;9863;49.404;8.246;2023-03-11T12:20:54;435.92;;;341.00;;
19448;SDS011;9863;49.404;8.246;2023-03-11T12:26:21;436.42;;;359.50;;
19448;SDS011;9863;49.404;8.246;2023-03-11T12:28:56;442.17;;;373.55;;
19448;SDS011;9863;49.404;8.246;2023-03-11T12:31:35;443.33;;;387.63;;
19448;SDS011;9863;49.404;8.246;2023-03-11T12:34:10;445.13;;;394.42;;
19448;SDS011;9863;49.404;8.246;2023-03-11T12:36:47;456.15;;;406.52;;
19448;SDS011;9863;49.404;8.246;2023-03-11T12:44:45;483.13;;;432.60;;
19448;SDS011;9863;49.404;8.246;2023-03-11T12:47:19;482.85;;;433.50;;
19448;SDS011;9863;49.404;8.246;2023-03-11T12:49:52;516.75;;;466.15;;
19448;SDS011;9863;49.404;8.246;2023-03-11T12:53:03;509.02;;;458.75;;
19448;SDS011;9863;49.404;8.246;2023-03-11T12:55:33;524.28;;;473.38;;
19448;SDS011;9863;49.404;8.246;2023-03-11T12:58:22;526.22;;;475.35;;
19448;SDS011;9863;49.404;8.246;2023-03-11T13:04:29;544.80;;;492.67;;
19448;SDS011;9863;49.404;8.246;2023-03-11T13:10:10;558.53;;;507.27;;
19448;SDS011;9863;49.404;8.246;2023-03-11T13:12:45;563.35;;;511.80;;
19448;SDS011;9863;49.404;8.246;2023-03-11T13:18:47;591.33;;;539.50;;
19448;SDS011;9863;49.404;8.246;2023-03-11T13:20:45;590.92;;;539.03;;
19448;SDS011;9863;49.404;8.246;2023-03-11T13:37:55;666.17;;;613.55;;
19448;SDS011;9863;49.404;8.246;2023-03-11T13:41:15;657.83;;;604.53;;
19448;SDS011;9863;49.404;8.246;2023-03-11T13:44:19;667.03;;;613.42;;
19448;SDS011;9863;49.404;8.246;2023-03-11T13:46:54;666.08;;;611.70;;
19448;SDS011;9863;49.404;8.246;2023-03-11T13:52:11;605.65;;;553.22;;
19448;SDS011;9863;49.404;8.246;2023-03-11T13:54:43;593.08;;;541.22;;
19448;SDS011;9863;49.404;8.246;2023-03-11T13:57:24;595.65;;;542.67;;
19448;SDS011;9863;49.404;8.246;2023-03-11T14:00:03;574.35;;;522.78;;
19448;SDS011;9863;49.404;8.246;2023-03-11T14:02:55;562.55;;;510.30;;
19448;SDS011;9863;49.404;8.246;2023-03-11T14:05:31;567.83;;;516.38;;
19448;SDS011;9863;49.404;8.246;2023-03-11T14:08:11;558.05;;;506.38;;
19448;SDS011;9863;49.404;8.246;2023-03-11T14:11:12;532.17;;;480.80;;
19448;SDS011;9863;49.404;8.246;2023-03-11T14:16:22;527.80;;;476.55;;
19448;SDS011;9863;49.404;8.246;2023-03-11T14:19:16;511.00;;;460.30;;
19448;SDS011;9863;49.404;8.246;2023-03-11T14:21:44;505.13;;;454.20;;
19448;SDS011;9863;49.404;8.246;2023-03-11T14:24:15;496.50;;;445.83;;
19448;SDS011;9863;49.404;8.246;2023-03-11T14:26:51;486.73;;;436.10;;
19448;SDS011;9863;49.404;8.246;2023-03-11T14:32:42;450.52;;;399.15;;
19448;SDS011;9863;49.404;8.246;2023-03-11T14:35:16;450.65;;;380.05;;
19448;SDS011;9863;49.404;8.246;2023-03-11T14:37:45;440.00;;;359.40;;
19448;SDS011;9863;49.404;8.246;2023-03-11T14:42:56;439.50;;;338.90;;
19448;SDS011;9863;49.404;8.246;2023-03-11T14:45:28;434.95;;;333.10;;
19448;SDS011;9863;49.404;8.246;2023-03-11T14:50:43;431.48;;;312.80;;
19448;SDS011;9863;49.404;8.246;2023-03-11T14:53:24;429.50;;;296.60;;
19448;SDS011;9863;49.404;8.246;2023-03-11T14:56:07;434.65;;;286.63;;
19448;SDS011;9863;49.404;8.246;2023-03-11T15:01:48;422.95;;;265.80;;
19448;SDS011;9863;49.404;8.246;2023-03-11T15:06:59;423.50;;;268.67;;
19448;SDS011;9863;49.404;8.246;2023-03-11T15:09:27;417.05;;;255.02;;
19448;SDS011;9863;49.404;8.246;2023-03-11T15:11:56;414.00;;;249.27;;
19448;SDS011;9863;49.404;8.246;2023-03-11T15:14:27;428.10;;;258.48;;
19448;SDS011;9863;49.404;8.246;2023-03-11T15:20:02;416.42;;;232.65;;
19448;SDS011;9863;49.404;8.246;2023-03-11T15:22:38;411.55;;;236.88;;
19448;SDS011;9863;49.404;8.246;2023-03-11T15:25:16;422.55;;;244.02;;
19448;SDS011;9863;49.404;8.246;2023-03-11T15:27:44;417.67;;;240.00;;
19448;SDS011;9863;49.404;8.246;2023-03-11T15:30:19;411.58;;;234.10;;
19448;SDS011;9863;49.404;8.246;2023-03-11T15:32:53;419.85;;;234.93;;
19448;SDS011;9863;49.404;8.246;2023-03-11T15:35:28;410.52;;;232.60;;
19448;SDS011;9863;49.404;8.246;2023-03-11T15:40:52;414.02;;;238.73;;
19448;SDS011;9863;49.404;8.246;2023-03-11T15:43:29;412.40;;;233.45;;
19448;SDS011;9863;49.404;8.246;2023-03-11T15:46:11;416.38;;;239.30;;
19448;SDS011;9863;49.404;8.246;2023-03-11T15:48:38;411.33;;;239.05;;
19448;SDS011;9863;49.404;8.246;2023-03-11T15:51:05;417.83;;;243.77;;
19448;SDS011;9863;49.404;8.246;2023-03-11T15:53:42;420.13;;;254.23;;
19448;SDS011;9863;49.404;8.246;2023-03-11T15:56:10;424.15;;;251.55;;
19448;SDS011;9863;49.404;8.246;2023-03-11T15:58:46;415.83;;;240.05;;
19448;SDS011;9863;49.404;8.246;2023-03-11T16:01:13;414.33;;;238.45;;
19448;SDS011;9863;49.404;8.246;2023-03-11T16:03:40;411.17;;;233.68;;
19448;SDS011;9863;49.404;8.246;2023-03-11T16:06:07;412.75;;;235.73;;
19448;SDS011;9863;49.404;8.246;2023-03-11T16:08:34;416.88;;;245.10;;
19448;SDS011;9863;49.404;8.246;2023-03-11T16:11:01;418.02;;;245.75;;
19448;SDS011;9863;49.404;8.246;2023-03-11T16:13:28;408.20;;;232.77;;
19448;SDS011;9863;49.404;8.246;2023-03-11T16:15:56;414.88;;;235.07;;
19448;SDS011;9863;49.404;8.246;2023-03-11T16:18:23;411.52;;;234.75;;
19448;SDS011;9863;49.404;8.246;2023-03-11T16:20:50;411.67;;;234.52;;
19448;SDS011;9863;49.404;8.246;2023-03-11T16:23:25;414.63;;;241.30;;
19448;SDS011;9863;49.404;8.246;2023-03-11T16:26:15;418.58;;;237.88;;
19448;SDS011;9863;49.404;8.246;2023-03-11T16:28:42;415.08;;;235.60;;